Home > Products > Valid Products > TAF

000
FTUS42 KKEY 020531
TAFEYW
TAF
KEYW 020531Z 0206/0306 10008KT P6SM SCT025=



000
FTUS42 KKEY 020531
TAFMTH
TAF
KMTH 020531Z 0206/0306 09006KT P6SM SCT025=



000
FTUS42 KKEY 020531
TAFEYW
TAF
KEYW 020531Z 0206/0306 10008KT P6SM SCT025=



000
FTUS42 KKEY 020531
TAFEYW
TAF
KEYW 020531Z 0206/0306 10008KT P6SM SCT025=



000
FTUS42 KKEY 020531
TAFMTH
TAF
KMTH 020531Z 0206/0306 09006KT P6SM SCT025=



000
FTUS42 KKEY 020531
TAFEYW
TAF
KEYW 020531Z 0206/0306 10008KT P6SM SCT025=



000
FTUS42 KKEY 012323
TAFEYW
TAF
KEYW 012323Z 0200/0224 11008KT P6SM FEW023
     FM020900 10007KT P6SM SCT023=



000
FTUS42 KKEY 012323
TAFMTH
TAF
KMTH 012323Z 0200/0224 11006KT P6SM FEW023
     FM020900 10005KT P6SM SCT023=



000
FTUS42 KKEY 012323
TAFEYW
TAF
KEYW 012323Z 0200/0224 11008KT P6SM FEW023
     FM020900 10007KT P6SM SCT023=



000
FTUS42 KKEY 011724
TAFEYW
TAF
KEYW 011724Z 0118/0218 14008KT P6SM SCT022
     FM012300 11008KT P6SM SCT022=



000
FTUS42 KKEY 011724
TAFMTH
TAF
KMTH 011724Z 0118/0218 14006KT P6SM SCT022
     FM012300 11005KT P6SM SCT022=



000
FTUS42 KKEY 011724
TAFEYW
TAF
KEYW 011724Z 0118/0218 14008KT P6SM SCT022
     FM012300 11008KT P6SM SCT022=



000
FTUS42 KKEY 011724
TAFEYW
TAF
KEYW 011724Z 0118/0218 14008KT P6SM SCT022
     FM012300 11008KT P6SM SCT022=



000
FTUS42 KKEY 011724
TAFEYW
TAF
KEYW 011724Z 0118/0218 14008KT P6SM SCT022
     FM012300 11008KT P6SM SCT022=



000
FTUS42 KKEY 011724
TAFMTH
TAF
KMTH 011724Z 0118/0218 14006KT P6SM SCT022
     FM012300 11005KT P6SM SCT022=



000
FTUS42 KKEY 011458 AAA
TAFEYW
TAF AMD
KEYW 011458Z 0115/0212 13008KT P6SM SCT025=



000
FTUS42 KKEY 011458 AAA
TAFMTH
TAF AMD
KMTH 011458Z 0115/0212 13005KT P6SM SCT025=



000
FTUS42 KKEY 011458 AAA
TAFEYW
TAF AMD
KEYW 011458Z 0115/0212 13008KT P6SM SCT025=



000
FTUS42 KKEY 011139
TAFEYW
TAF
KEYW 011139Z 0112/0212 13008KT P6SM FEW025=



000
FTUS42 KKEY 011139
TAFMTH
TAF
KMTH 011139Z 0112/0212 13005KT P6SM FEW025=



000
FTUS42 KKEY 011139
TAFEYW
TAF
KEYW 011139Z 0112/0212 13008KT P6SM FEW025=



000
FTUS42 KKEY 011139
TAFEYW
TAF
KEYW 011139Z 0112/0212 13008KT P6SM FEW025=



000
FTUS42 KKEY 011139
TAFEYW
TAF
KEYW 011139Z 0112/0212 13008KT P6SM FEW025=



000
FTUS42 KKEY 011139
TAFMTH
TAF
KMTH 011139Z 0112/0212 13005KT P6SM FEW025=



000
FTUS42 KKEY 010912 AAA
TAFEYW
TAF AMD
KEYW 010912Z 0109/0206 12006KT P6SM FEW025=



000
FTUS42 KKEY 010532
TAFEYW
TAF
KEYW 010532Z 0106/0206 03004KT P6SM SKC
     FM011200 14006KT P6SM FEW025=



000
FTUS42 KKEY 010532
TAFMTH
TAF
KMTH 010532Z 0106/0206 02003KT P6SM SKC
     FM011200 14005KT P6SM FEW025=



000
FTUS42 KKEY 010532
TAFEYW
TAF
KEYW 010532Z 0106/0206 03004KT P6SM SKC
     FM011200 14006KT P6SM FEW025=



000
FTUS42 KKEY 312326
TAFEYW
TAF
KEYW 312326Z 0100/0124 14007KT P6SM FEW025=



000
FTUS42 KKEY 312326
TAFEYW
TAF
KEYW 312326Z 0100/0124 14007KT P6SM FEW025=



000
FTUS42 KKEY 312326
TAFMTH
TAF
KMTH 312326Z 0100/0124 14005KT P6SM FEW025=



000
FTUS42 KKEY 311734
TAFMTH
TAF
KMTH 311734Z 3118/0118 14007KT P6SM FEW025 FEW035=



000
FTUS42 KKEY 311734
TAFEYW
TAF
KEYW 311734Z 3118/0118 16010KT P6SM FEW025 FEW035=



000
FTUS42 KKEY 311734
TAFEYW
TAF
KEYW 311734Z 3118/0118 16010KT P6SM FEW025 FEW035=



000
FTUS42 KKEY 311500 AAA
TAFEYW
TAF AMD
KEYW 311500Z 3115/0112 16010KT P6SM FEW025 FEW035=



000
FTUS42 KKEY 311500 AAA
TAFEYW
TAF AMD
KEYW 311500Z 3115/0112 16010KT P6SM FEW025 FEW035=



000
FTUS42 KKEY 311500 AAA
TAFMTH
TAF AMD
KMTH 311500Z 3115/0112 14007KT P6SM FEW025 FEW035=



000
FTUS42 KKEY 311137
TAFEYW
TAF
KEYW 311137Z 3112/0112 17009KT P6SM FEW025 SCT035=



000
FTUS42 KKEY 311137
TAFEYW
TAF
KEYW 311137Z 3112/0112 17009KT P6SM FEW025 SCT035=



000
FTUS42 KKEY 311137
TAFMTH
TAF
KMTH 311137Z 3112/0112 14007KT P6SM FEW025 SCT035=



000
FTUS42 KKEY 311137
TAFEYW
TAF
KEYW 311137Z 3112/0112 17009KT P6SM FEW025 SCT035=



000
FTUS42 KKEY 311137
TAFMTH
TAF
KMTH 311137Z 3112/0112 14007KT P6SM FEW025 SCT035=



000
FTUS42 KKEY 311137
TAFEYW
TAF
KEYW 311137Z 3112/0112 17009KT P6SM FEW025 SCT035=



000
FTUS42 KKEY 310845 AAA
TAFEYW
TAF AMD
KEYW 310845Z 3109/0106 18009KT P6SM FEW025=



000
FTUS42 KKEY 310845 AAA
TAFEYW
TAF AMD
KEYW 310845Z 3109/0106 18009KT P6SM FEW025=



000
FTUS42 KKEY 310537
TAFEYW
TAF
KEYW 310537Z 3106/0106 16010KT P6SM FEW025 SCT030=



000
FTUS42 KKEY 310537
TAFMTH
TAF
KMTH 310537Z 3106/0106 16007KT P6SM FEW025 SCT030=



000
FTUS42 KKEY 310537
TAFEYW
TAF
KEYW 310537Z 3106/0106 16010KT P6SM FEW025 SCT030=



000
FTUS42 KKEY 310102 AAA
TAFEYW
TAF AMD
KEYW 310102Z 3101/3124 20011KT P6SM VCSH SCT025
     FM310600 17010KT P6SM SCT025=



000
FTUS42 KKEY 310102 AAA
TAFEYW
TAF AMD
KEYW 310102Z 3101/3124 20011KT P6SM VCSH SCT025
     FM310600 17010KT P6SM SCT025=



000
FTUS42 KKEY 310102 AAA
TAFEYW
TAF AMD
KEYW 310102Z 3101/3124 20011KT P6SM VCSH SCT025
     FM310600 17010KT P6SM SCT025=



000
FTUS42 KKEY 310102 AAA
TAFEYW
TAF AMD
KEYW 310102Z 3101/3124 20011KT P6SM VCSH SCT025
     FM310600 17010KT P6SM SCT025=



000
FTUS42 KKEY 310100 AAA
TAFMTH
TAF AMD
KMTH 310100Z 3101/3124 20010KT P6SM VCSH SCT025
     FM310600 16008KT P6SM SCT025=



000
FTUS42 KKEY 310100 AAA
TAFMTH
TAF AMD
KMTH 310100Z 3101/3124 20010KT P6SM VCSH SCT025
     FM310600 16008KT P6SM SCT025=



000
FTUS42 KKEY 302322
TAFMTH
TAF
KMTH 302322Z 3100/3124 17010G20KT P6SM VCSH SCT025
     FM310600 16008KT P6SM VCSH SCT020=



000
FTUS42 KKEY 302322
TAFEYW
TAF
KEYW 302322Z 3100/3124 17013KT P6SM VCSH SCT025=



000
FTUS42 KKEY 302322
TAFEYW
TAF
KEYW 302322Z 3100/3124 17013KT P6SM VCSH SCT025=



000
FTUS42 KKEY 302322
TAFEYW
TAF
KEYW 302322Z 3100/3124 17013KT P6SM VCSH SCT025=



000
FTUS42 KKEY 302322
TAFMTH
TAF
KMTH 302322Z 3100/3124 17010G20KT P6SM VCSH SCT025
     FM310600 16008KT P6SM VCSH SCT020=



000
FTUS42 KKEY 302322
TAFEYW
TAF
KEYW 302322Z 3100/3124 17013KT P6SM VCSH SCT025=



000
FTUS42 KKEY 302044 AAA
TAFMTH
TAF AMD
KMTH 302044Z 3021/3118 17010G20KT P6SM VCSH SCT020 SCT030
     FM310600 18008G16KT P6SM VCSH SCT020 SCT050=



000
FTUS42 KKEY 301736
TAFMTH
TAF
KMTH 301736Z 3018/3118 20010G20KT P6SM VCSH SCT020 SCT030
     FM310600 18008G16KT P6SM VCSH SCT020 SCT050=



000
FTUS42 KKEY 301736
TAFEYW
TAF
KEYW 301736Z 3018/3118 19014G20KT P6SM VCSH SCT020 SCT030
     FM310400 17012G18KT P6SM VCSH SCT020 SCT050=



000
FTUS42 KKEY 301736
TAFEYW
TAF
KEYW 301736Z 3018/3118 19014G20KT P6SM VCSH SCT020 SCT030
     FM310400 17012G18KT P6SM VCSH SCT020 SCT050=



000
FTUS42 KKEY 301736
TAFEYW
TAF
KEYW 301736Z 3018/3118 19014G20KT P6SM VCSH SCT020 SCT030
     FM310400 17012G18KT P6SM VCSH SCT020 SCT050=



000
FTUS42 KKEY 301736
TAFEYW
TAF
KEYW 301736Z 3018/3118 19014G20KT P6SM VCSH SCT020 SCT030
     FM310400 17012G18KT P6SM VCSH SCT020 SCT050=



000
FTUS42 KKEY 301736
TAFMTH
TAF
KMTH 301736Z 3018/3118 20010G20KT P6SM VCSH SCT020 SCT030
     FM310600 18008G16KT P6SM VCSH SCT020 SCT050=



000
FTUS42 KKEY 301500 AAB
TAFEYW
TAF AMD
KEYW 301500Z 3015/3112 18014G22KT P6SM VCTS SCT018CB SCT025 BKN035
      TEMPO 3015/3016 4SM SHRA BKN020
     FM302300 18014G20KT P6SM VCSH SCT020 BKN050=



000
FTUS42 KKEY 301500 AAB
TAFEYW
TAF AMD
KEYW 301500Z 3015/3112 18014G22KT P6SM VCTS SCT018CB SCT025 BKN035
      TEMPO 3015/3016 4SM SHRA BKN020
     FM302300 18014G20KT P6SM VCSH SCT020 BKN050=



000
FTUS42 KKEY 301500 AAB
TAFEYW
TAF AMD
KEYW 301500Z 3015/3112 18014G22KT P6SM VCTS SCT018CB SCT025 BKN035
      TEMPO 3015/3016 4SM SHRA BKN020
     FM302300 18014G20KT P6SM VCSH SCT020 BKN050=



000
FTUS42 KKEY 301451 AAB
TAFMTH
TAF AMD
KMTH 301451Z 3015/3112 18010G18KT P6SM VCTS SCT019CB BKN035
      TEMPO 3015/3016 2SM TSRA BKN019CB BKN035
     FM302300 18014G20KT P6SM VCSH SCT020 BKN050=



000
FTUS42 KKEY 301451 AAB
TAFMTH
TAF AMD
KMTH 301451Z 3015/3112 18010G18KT P6SM VCTS SCT019CB BKN035
      TEMPO 3015/3016 2SM TSRA BKN019CB BKN035
     FM302300 18014G20KT P6SM VCSH SCT020 BKN050=



000
FTUS42 KKEY 301347 CCA
TAFEYW
TAF COR
KEYW 301347Z 3014/3112 16014G22KT P6SM VCTS SCT018CB SCT025 BKN035
      TEMPO 3014/3015 16018G28KT 1SM TSRA BKN017CB BKN025
     FM302300 18014G20KT P6SM VCSH SCT020 BKN050=



000
FTUS42 KKEY 301347 CCA
TAFEYW
TAF COR
KEYW 301347Z 3014/3112 16014G22KT P6SM VCTS SCT018CB SCT025 BKN035
      TEMPO 3014/3015 16018G28KT 1SM TSRA BKN017CB BKN025
     FM302300 18014G20KT P6SM VCSH SCT020 BKN050=



000
FTUS42 KKEY 301343 AAA
TAFEYW
TAF AMD
KEYW 301343Z 3014/3112 16014G22KT P6SM VCTS SCT018CB SCT025 BKN035
      TEMPO 3014/3015 16016G25KT 4SM SHRA BKN017 BKN025
     FM302300 18014G20KT P6SM VCSH SCT020 BKN050=



000
FTUS42 KKEY 301343 AAA
TAFEYW
TAF AMD
KEYW 301343Z 3014/3112 16014G22KT P6SM VCTS SCT018CB SCT025 BKN035
      TEMPO 3014/3015 16016G25KT 4SM SHRA BKN017 BKN025
     FM302300 18014G20KT P6SM VCSH SCT020 BKN050=



000
FTUS42 KKEY 301343 AAA
TAFMTH
TAF AMD
KMTH 301343Z 3014/3112 16010G18KT P6SM VCTS SCT019CB BKN035
      TEMPO 3014/3015 4SM TSRA BKN019CB BKN035
     FM302300 18014G20KT P6SM VCSH SCT020 BKN050=



000
FTUS42 KKEY 301343 AAA
TAFEYW
TAF AMD
KEYW 301343Z 3014/3112 16014G22KT P6SM VCTS SCT018CB SCT025 BKN035
      TEMPO 3014/3015 16016G25KT 4SM SHRA BKN017 BKN025
     FM302300 18014G20KT P6SM VCSH SCT020 BKN050=



000
FTUS42 KKEY 301343 AAA
TAFMTH
TAF AMD
KMTH 301343Z 3014/3112 16010G18KT P6SM VCTS SCT019CB BKN035
      TEMPO 3014/3015 4SM TSRA BKN019CB BKN035
     FM302300 18014G20KT P6SM VCSH SCT020 BKN050=



000
FTUS42 KKEY 301343 AAA
TAFEYW
TAF AMD
KEYW 301343Z 3014/3112 16014G22KT P6SM VCTS SCT018CB SCT025 BKN035
      TEMPO 3014/3015 16016G25KT 4SM SHRA BKN017 BKN025
     FM302300 18014G20KT P6SM VCSH SCT020 BKN050=



000
FTUS42 KKEY 301140
TAFMTH
TAF
KMTH 301140Z 3012/3112 14012G22KT P6SM VCSH SCT018 BKN050 OVC100
     FM302300 18012G18KT P6SM VCSH SCT020 BKN050 OVC100=



000
FTUS42 KKEY 301140
TAFEYW
TAF
KEYW 301140Z 3012/3112 15014G20KT P6SM VCSH SCT018 BKN050 OVC100
     FM302300 18014G20KT P6SM VCSH SCT020 BKN050 OVC100=



000
FTUS42 KKEY 301140
TAFEYW
TAF
KEYW 301140Z 3012/3112 15014G20KT P6SM VCSH SCT018 BKN050 OVC100
     FM302300 18014G20KT P6SM VCSH SCT020 BKN050 OVC100=



000
FTUS42 KKEY 300942 AAC
TAFMTH
TAF AMD
KMTH 300942Z 3010/3106 13010G17KT P6SM VCSH SCT020 BKN060 OVC100
      TEMPO 3010/3011 15020G30KT 2SM +RA SCT020 BKN030 OVC060=



000
FTUS42 KKEY 300846 AAB
TAFEYW
TAF AMD
KEYW 300846Z 3009/3106 06008KT P6SM VCSH SCT020 BKN060 OVC100
     FM301100 14008G15KT P6SM VCSH SCT020 BKN050 OVC100=



000
FTUS42 KKEY 300846 AAB
TAFEYW
TAF AMD
KEYW 300846Z 3009/3106 06008KT P6SM VCSH SCT020 BKN060 OVC100
     FM301100 14008G15KT P6SM VCSH SCT020 BKN050 OVC100=



000
FTUS42 KKEY 300846 AAB
TAFMTH
TAF AMD
KMTH 300846Z 3009/3106 13010G17KT P6SM VCSH SCT020 BKN060 OVC100=



000
FTUS42 KKEY 300846 AAB
TAFEYW
TAF AMD
KEYW 300846Z 3009/3106 06008KT P6SM VCSH SCT020 BKN060 OVC100
     FM301100 14008G15KT P6SM VCSH SCT020 BKN050 OVC100=



000
FTUS42 KKEY 300846 AAB
TAFEYW
TAF AMD
KEYW 300846Z 3009/3106 06008KT P6SM VCSH SCT020 BKN060 OVC100
     FM301100 14008G15KT P6SM VCSH SCT020 BKN050 OVC100=



000
FTUS42 KKEY 300846 AAB
TAFMTH
TAF AMD
KMTH 300846Z 3009/3106 13010G17KT P6SM VCSH SCT020 BKN060 OVC100=



000
FTUS42 KKEY 300644 AAA
TAFEYW
TAF AMD
KEYW 300644Z 3007/3106 07012G17KT P6SM VCTS SCT030 BKN050CB OVC100
     FM300900 14013G18KT P6SM VCSH SCT020 BKN050 OVC100=



000
FTUS42 KKEY 300644 AAA
TAFMTH
TAF AMD
KMTH 300644Z 3007/3106 08012G17KT P6SM VCTS SCT025 BKN050CB OVC100
     FM300900 14013G18KT P6SM VCSH SCT020 BKN050 OVC100=



    US Dept of Commerce
    National Oceanic and Atmospheric Administration
    National Weather Service
    1325 East West Highway
    Silver Spring, MD 20910
    Page Author: NWS Internet Services Team
Disclaimer
Information Quality
Credits
Glossary
Privacy Policy
Freedom of Information Act (FOIA)
About Us
Career Opportunities